createdAt,value
2023-08-05T00:00:17.191Z,100277.09
2023-08-05T00:03:09.607Z,100275.69
2023-08-05T00:05:41.977Z,100277.59
2023-08-05T00:08:14.439Z,100275.86
2023-08-05T00:10:49.909Z,100276.63
2023-08-05T00:13:22.299Z,100277.95
2023-08-05T00:15:54.717Z,100279.23
2023-08-05T00:18:27.142Z,100277.15
2023-08-05T00:20:59.451Z,100275.11
2023-08-05T00:23:32.188Z,100270.20
2023-08-05T00:26:04.370Z,100264.02
2023-08-05T00:28:36.769Z,100257.36
2023-08-05T00:31:12.325Z,100253.48
2023-08-05T00:33:42.870Z,100249.44
2023-08-05T00:36:15.361Z,100248.42
2023-08-05T00:38:47.646Z,100246.08
2023-08-05T00:41:20.146Z,100240.41
2023-08-05T00:43:52.432Z,100236.52
2023-08-05T00:46:24.764Z,100234.54
2023-08-05T00:48:57.008Z,100235.59
2023-08-05T00:51:30.073Z,100236.55
2023-08-05T00:54:02.625Z,100234.41
2023-08-05T00:56:35.627Z,100235.54
2023-08-05T00:59:08.234Z,100238.66
2023-08-05T01:01:40.700Z,100242.17
2023-08-05T01:04:12.951Z,100241.84
2023-08-05T01:06:46.808Z,100239.80
2023-08-05T01:09:19.431Z,100234.89
2023-08-05T01:11:51.810Z,100232.21
2023-08-05T01:14:24.069Z,100226.58
2023-08-05T01:16:56.571Z,100222.95
2023-08-05T01:19:30.674Z,100220.89
2023-08-05T01:22:13.376Z,100220.45
2023-08-05T01:24:59.641Z,100212.90
2023-08-05T01:27:34.635Z,100211.48
2023-08-05T01:30:08.377Z,100203.94
2023-08-05T01:32:43.068Z,100194.27
2023-08-05T01:35:15.871Z,100196.30
2023-08-05T01:37:48.736Z,100192.69
2023-08-05T01:40:20.915Z,100199.64
2023-08-05T01:42:53.297Z,100204.92
2023-08-05T01:45:25.489Z,100200.97
2023-08-05T01:47:57.822Z,100201.34
2023-08-05T01:50:30.086Z,100201.70
2023-08-05T01:53:02.500Z,100204.13
2023-08-05T01:55:35.013Z,100205.09
2023-08-05T01:58:07.328Z,100207.63
2023-08-05T02:00:39.586Z,100206.86
2023-08-05T02:03:12.202Z,100206.17
2023-08-05T02:05:44.509Z,100210.20
2023-08-05T02:08:16.836Z,100210.19
2023-08-05T02:10:49.360Z,100212.44
2023-08-05T02:13:21.540Z,100210.36
2023-08-05T02:15:53.852Z,100206.64
2023-08-05T02:18:26.171Z,100200.35
2023-08-05T02:20:58.221Z,100199.79
2023-08-05T02:23:30.556Z,100195.73
2023-08-05T02:26:03.744Z,100196.71
2023-08-05T02:28:36.138Z,100194.83
2023-08-05T02:31:08.458Z,100195.22
2023-08-05T02:33:40.733Z,100200.00
2023-08-05T02:36:13.343Z,100204.02
2023-08-05T02:38:45.837Z,100207.20
2023-08-05T02:41:18.160Z,100209.75
2023-08-05T02:43:50.533Z,100207.69
2023-08-05T02:46:23.038Z,100211.89
2023-08-05T02:48:55.413Z,100214.81
2023-08-05T02:51:27.841Z,100215.73
2023-08-05T02:54:00.262Z,100218.13
2023-08-05T02:56:35.071Z,100214.17
2023-08-05T02:59:07.422Z,100217.07
2023-08-05T03:01:39.722Z,100215.66
2023-08-05T03:04:11.966Z,100216.83
2023-08-05T03:06:44.698Z,100219.05
2023-08-05T03:09:17.049Z,100219.94
2023-08-05T03:11:50.556Z,100230.10
2023-08-05T03:14:22.836Z,100233.95
2023-08-05T03:16:55.303Z,100235.47
2023-08-05T03:19:27.566Z,100233.09
2023-08-05T03:21:59.678Z,100234.20
2023-08-05T03:24:32.035Z,100235.27
2023-08-05T03:27:04.386Z,100227.70
2023-08-05T03:29:36.823Z,100230.11
2023-08-05T03:32:09.660Z,100221.60
2023-08-05T03:34:41.791Z,100218.46
2023-08-05T03:37:14.051Z,100227.06
2023-08-05T03:39:46.408Z,100226.67
2023-08-05T03:42:18.639Z,100228.98
2023-08-05T03:44:50.845Z,100232.55
2023-08-05T03:47:23.073Z,100232.83
2023-08-05T03:49:55.684Z,100231.13
2023-08-05T03:52:28.262Z,100235.48
2023-08-05T03:55:00.868Z,100236.02
2023-08-05T03:57:33.270Z,100240.56
2023-08-05T04:00:06.014Z,100243.72
2023-08-05T04:02:38.467Z,100241.52
2023-08-05T04:05:11.890Z,100235.65
2023-08-05T04:07:44.271Z,100235.75
2023-08-05T04:10:20.922Z,100237.98
2023-08-05T04:12:53.388Z,100241.31
2023-08-05T04:15:29.227Z,100244.82
2023-08-05T04:18:01.584Z,100239.27
2023-08-05T04:20:35.737Z,100237.30
2023-08-05T04:23:10.330Z,100246.50
2023-08-05T04:25:46.282Z,100250.01
2023-08-05T04:28:18.658Z,100252.45
2023-08-05T04:30:50.989Z,100250.11
2023-08-05T04:33:24.015Z,100249.88
2023-08-05T04:35:56.256Z,100245.61
2023-08-05T04:38:28.552Z,100247.09
2023-08-05T04:41:01.616Z,100242.93
2023-08-05T04:43:33.959Z,100241.51
2023-08-05T04:46:06.379Z,100240.06
2023-08-05T04:48:38.633Z,100244.16
2023-08-05T04:51:11.050Z,100246.48
2023-08-05T04:53:43.293Z,100244.33
2023-08-05T04:56:15.524Z,100247.02
2023-08-05T04:58:47.932Z,100243.14
2023-08-05T05:01:20.571Z,100241.96
2023-08-05T05:03:53.170Z,100236.63
2023-08-05T05:06:25.535Z,100236.46
2023-08-05T05:08:57.868Z,100235.10
2023-08-05T05:11:30.033Z,100242.76
2023-08-05T05:14:02.419Z,100243.33
2023-08-05T05:16:34.682Z,100243.30
2023-08-05T05:19:06.981Z,100249.18
2023-08-05T05:21:39.344Z,100254.08
2023-08-05T05:24:11.569Z,100254.25
2023-08-05T05:26:44.047Z,100250.14
2023-08-05T05:29:16.383Z,100245.02
2023-08-05T05:31:48.660Z,100249.52
2023-08-05T05:34:20.945Z,100255.77
2023-08-05T05:36:53.531Z,100258.47
2023-08-05T05:39:25.862Z,100264.48
2023-08-05T05:41:58.289Z,100264.09
2023-08-05T05:44:32.333Z,100265.27
2023-08-05T05:47:04.716Z,100256.34
2023-08-05T05:49:37.236Z,100246.08
2023-08-05T05:52:12.746Z,100248.88
2023-08-05T05:54:43.516Z,100250.62
2023-08-05T05:57:15.744Z,100247.91
2023-08-05T05:59:48.281Z,100248.91
2023-08-05T06:02:20.511Z,100245.73
2023-08-05T06:04:53.210Z,100245.05
2023-08-05T06:07:25.577Z,100238.12
2023-08-05T06:09:58.267Z,100246.23
2023-08-05T06:12:34.200Z,100250.34
2023-08-05T06:15:08.885Z,100249.30
2023-08-05T06:17:41.102Z,100251.39
2023-08-05T06:20:15.502Z,100238.75
2023-08-05T06:22:47.869Z,100241.02
2023-08-05T06:25:20.345Z,100235.36
2023-08-05T06:27:52.666Z,100232.66
2023-08-05T06:30:25.078Z,100233.38
2023-08-05T06:32:57.284Z,100228.37
2023-08-05T06:35:29.953Z,100226.17
2023-08-05T06:38:02.272Z,100221.36
2023-08-05T06:40:34.364Z,100224.17
2023-08-05T06:43:06.770Z,100218.30
2023-08-05T06:45:39.222Z,100215.52
2023-08-05T06:48:11.716Z,100215.54
2023-08-05T06:50:44.428Z,100215.40
2023-08-05T06:53:16.637Z,100219.67
2023-08-05T06:55:49.187Z,100212.10
2023-08-05T06:58:21.296Z,100214.48
2023-08-05T07:00:57.429Z,100211.72
2023-08-05T07:03:30.280Z,100215.55
2023-08-05T07:06:02.708Z,100219.23
2023-08-05T07:08:34.860Z,100222.84
2023-08-05T07:11:07.209Z,100216.96
2023-08-05T07:13:39.616Z,100215.96
2023-08-05T07:16:12.147Z,100213.77
2023-08-05T07:18:44.470Z,100208.29
2023-08-05T07:21:17.395Z,100207.15
2023-08-05T07:23:51.939Z,100205.02
2023-08-05T07:26:24.166Z,100210.94
2023-08-05T07:28:56.363Z,100209.37
2023-08-05T07:31:28.833Z,100205.02
2023-08-05T07:34:01.489Z,100202.06
2023-08-05T07:36:33.933Z,100201.79
2023-08-05T07:39:09.669Z,100191.64
2023-08-05T07:41:42.003Z,100189.55
2023-08-05T07:44:14.338Z,100190.38
2023-08-05T07:46:48.682Z,100181.90
2023-08-05T07:49:24.290Z,100186.72
2023-08-05T07:51:56.940Z,100182.56
2023-08-05T07:54:29.195Z,100182.90
2023-08-05T07:57:01.684Z,100182.13
2023-08-05T07:59:35.348Z,100184.21
2023-08-05T08:02:11.846Z,100175.04
2023-08-05T08:04:45.360Z,100174.51
2023-08-05T08:07:17.619Z,100169.00
2023-08-05T08:09:49.989Z,100163.77
2023-08-05T08:12:22.251Z,100153.02
2023-08-05T08:14:54.595Z,100149.01
2023-08-05T08:17:27.536Z,100150.95
2023-08-05T08:19:59.981Z,100146.05
2023-08-05T08:22:32.167Z,100147.65
2023-08-05T08:25:05.087Z,100141.32
2023-08-05T08:27:37.504Z,100140.48
2023-08-05T08:30:12.706Z,100133.33
2023-08-05T08:32:45.020Z,100135.45
2023-08-05T08:35:17.484Z,100132.89
2023-08-05T08:37:49.704Z,100136.41
2023-08-05T08:40:22.312Z,100136.83
2023-08-05T08:42:56.525Z,100144.06
2023-08-05T08:45:34.584Z,100142.91
2023-08-05T08:48:10.765Z,100135.80
2023-08-05T08:50:44.362Z,100126.15
2023-08-05T08:53:17.469Z,100122.45
2023-08-05T08:55:50.777Z,100123.88
2023-08-05T08:58:22.953Z,100120.35
2023-08-05T09:00:55.856Z,100116.67
2023-08-05T09:03:29.705Z,100120.52
2023-08-05T09:06:02.289Z,100106.06
2023-08-05T09:08:35.852Z,100104.25
2023-08-05T09:11:08.222Z,100094.42
2023-08-05T09:13:42.264Z,100093.95
2023-08-05T09:16:18.249Z,100096.73
2023-08-05T09:18:58.254Z,100096.67
2023-08-05T09:21:32.282Z,100103.05
2023-08-05T09:24:04.759Z,100103.71
2023-08-05T09:26:37.558Z,100097.14
2023-08-05T09:29:10.241Z,100092.14
2023-08-05T09:31:42.772Z,100080.29
2023-08-05T09:34:16.294Z,100084.99
2023-08-05T09:36:49.617Z,100096.59
2023-08-05T09:39:23.401Z,100087.69
2023-08-05T09:41:57.276Z,100079.68
2023-08-05T09:44:30.033Z,100079.91
2023-08-05T09:47:05.737Z,100076.86
2023-08-05T09:49:40.075Z,100069.66
2023-08-05T09:52:13.375Z,100068.05
2023-08-05T09:54:48.709Z,100065.70
2023-08-05T09:57:22.356Z,100064.92
2023-08-05T09:59:55.255Z,100065.21
2023-08-05T10:02:28.529Z,100051.87
2023-08-05T10:05:02.712Z,100051.82
2023-08-05T10:07:34.896Z,100047.66
2023-08-05T10:10:09.446Z,100055.19
2023-08-05T10:12:41.683Z,100054.86
2023-08-05T10:15:31.207Z,100054.02
2023-08-05T10:18:03.698Z,100045.91
2023-08-05T10:20:40.381Z,100039.98
2023-08-05T10:23:15.483Z,100036.57
2023-08-05T10:25:49.474Z,100040.81
2023-08-05T10:28:43.869Z,100036.04
2023-08-05T10:31:30.408Z,100026.98
2023-08-05T10:34:20.611Z,100018.17
2023-08-05T10:36:59.201Z,100023.37
2023-08-05T10:39:47.194Z,100017.82
2023-08-05T10:42:32.800Z,100011.05
2023-08-05T10:45:08.404Z,100011.60
2023-08-05T10:47:50.192Z,100009.09
2023-08-05T10:50:22.986Z,100009.54
2023-08-05T10:52:55.683Z,100004.73
2023-08-05T10:55:29.717Z,100006.56
2023-08-05T10:58:02.514Z,99995.47
2023-08-05T11:00:42.487Z,100003.25
2023-08-05T11:03:32.631Z,99992.58
2023-08-05T11:06:07.090Z,99977.39
2023-08-05T11:08:40.725Z,99976.16
2023-08-05T11:11:15.291Z,99980.92
2023-08-05T11:13:48.757Z,99981.18
2023-08-05T11:16:21.889Z,99975.56
2023-08-05T11:19:01.639Z,99963.83
2023-08-05T11:21:33.988Z,99959.29
2023-08-05T11:24:07.318Z,99955.20
2023-08-05T11:26:39.553Z,99951.96
2023-08-05T11:29:11.983Z,99953.50
2023-08-05T11:31:53.971Z,99938.98
2023-08-05T11:34:26.974Z,99946.24
2023-08-05T11:36:59.841Z,99942.66
2023-08-05T11:39:32.435Z,99939.30
2023-08-05T11:42:05.359Z,99930.29
2023-08-05T11:44:37.732Z,99922.84
2023-08-05T11:47:10.231Z,99911.59
2023-08-05T11:49:52.457Z,99915.88
2023-08-05T11:52:24.766Z,99910.35
2023-08-05T11:55:05.823Z,99916.77
2023-08-05T11:57:38.180Z,99907.74
2023-08-05T12:00:13.756Z,99908.83
2023-08-05T12:02:46.208Z,99909.01
2023-08-05T12:05:21.996Z,99897.27
2023-08-05T12:07:54.265Z,99892.23
2023-08-05T12:10:28.514Z,99884.55
2023-08-05T12:13:03.177Z,99879.75
2023-08-05T12:15:35.711Z,99880.68
2023-08-05T12:18:09.438Z,99885.02
2023-08-05T12:20:41.878Z,99879.52
2023-08-05T12:23:14.182Z,99875.64
2023-08-05T12:25:46.595Z,99870.27
2023-08-05T12:28:19.425Z,99861.10
2023-08-05T12:30:51.757Z,99853.02
2023-08-05T12:33:24.070Z,99841.09
2023-08-05T12:35:56.286Z,99841.45
2023-08-05T12:38:28.959Z,99843.86
2023-08-05T12:41:01.233Z,99838.24
2023-08-05T12:43:33.584Z,99833.50
2023-08-05T12:46:05.866Z,99827.61
2023-08-05T12:48:38.275Z,99833.04
2023-08-05T12:51:10.614Z,99828.46
2023-08-05T12:53:43.060Z,99827.84
2023-08-05T12:56:15.799Z,99834.77
2023-08-05T12:58:48.114Z,99825.15
2023-08-05T13:01:20.396Z,99822.55
2023-08-05T13:03:52.689Z,99819.89
2023-08-05T13:06:25.416Z,99818.60
2023-08-05T13:08:57.727Z,99813.77
2023-08-05T13:11:30.002Z,99801.90
2023-08-05T13:14:02.183Z,99804.34
2023-08-05T13:16:34.443Z,99803.52
2023-08-05T13:19:08.036Z,99800.50
2023-08-05T13:21:40.655Z,99790.95
2023-08-05T13:24:13.021Z,99782.34
2023-08-05T13:26:45.426Z,99782.27
2023-08-05T13:29:17.983Z,99786.69
2023-08-05T13:31:50.946Z,99792.69
2023-08-05T13:34:23.998Z,99787.94
2023-08-05T13:36:56.386Z,99787.90
2023-08-05T13:39:28.592Z,99790.33
2023-08-05T13:42:01.652Z,99782.94
2023-08-05T13:44:34.280Z,99776.90
2023-08-05T13:47:06.667Z,99771.16
2023-08-05T13:49:39.037Z,99774.52
2023-08-05T13:52:11.697Z,99772.35
2023-08-05T13:54:44.037Z,99756.20
2023-08-05T13:57:16.356Z,99759.16
2023-08-05T13:59:48.734Z,99760.40
2023-08-05T14:02:21.742Z,99753.44
2023-08-05T14:04:54.100Z,99756.61
2023-08-05T14:07:26.622Z,99755.54
2023-08-05T14:10:01.008Z,99756.45
2023-08-05T14:12:33.318Z,99753.08
2023-08-05T14:15:06.792Z,99750.83
2023-08-05T14:17:39.225Z,99751.01
2023-08-05T14:20:13.078Z,99750.90
2023-08-05T14:22:45.380Z,99739.08
2023-08-05T14:25:17.908Z,99742.09
2023-08-05T14:27:51.348Z,99740.13
2023-08-05T14:30:30.814Z,99739.64
2023-08-05T14:33:03.808Z,99736.16
2023-08-05T14:35:37.189Z,99737.19
2023-08-05T14:38:09.332Z,99733.90
2023-08-05T14:40:41.627Z,99730.55
2023-08-05T14:43:13.868Z,99732.03
2023-08-05T14:45:46.204Z,99730.09
2023-08-05T14:48:19.157Z,99738.02
2023-08-05T14:50:51.287Z,99730.77
2023-08-05T14:53:23.577Z,99740.42
2023-08-05T14:56:00.696Z,99731.29
2023-08-05T14:58:33.005Z,99733.27
2023-08-05T15:01:17.712Z,99731.52
2023-08-05T15:03:51.522Z,99727.67
2023-08-05T15:06:24.523Z,99723.18
2023-08-05T15:08:57.113Z,99711.18
2023-08-05T15:11:29.588Z,99716.92
2023-08-05T15:14:01.940Z,99721.23
2023-08-05T15:16:35.076Z,99706.73
2023-08-05T15:19:07.616Z,99703.92
2023-08-05T15:21:39.985Z,99706.60
2023-08-05T15:24:12.309Z,99708.13
2023-08-05T15:26:44.534Z,99705.09
2023-08-05T15:29:19.150Z,99702.23
2023-08-05T15:31:51.433Z,99701.88
2023-08-05T15:34:23.736Z,99693.47
2023-08-05T15:36:57.172Z,99689.27
2023-08-05T15:39:32.005Z,99691.04
2023-08-05T15:42:05.034Z,99692.38
2023-08-05T15:44:40.667Z,99694.52
2023-08-05T15:47:12.807Z,99686.73
2023-08-05T15:49:45.318Z,99694.27
2023-08-05T15:52:17.811Z,99695.94
2023-08-05T15:54:52.130Z,99694.43
2023-08-05T15:57:24.405Z,99698.44
2023-08-05T15:59:57.008Z,99702.23
2023-08-05T16:02:29.360Z,99702.48
2023-08-05T16:05:01.887Z,99702.99
2023-08-05T16:07:37.154Z,99704.50
2023-08-05T16:10:10.898Z,99708.15
2023-08-05T16:12:43.211Z,99704.76
2023-08-05T16:15:16.027Z,99703.42
2023-08-05T16:17:48.362Z,99700.23
2023-08-05T16:20:20.864Z,99703.90
2023-08-05T16:22:54.892Z,99698.27
2023-08-05T16:25:27.614Z,99698.29
2023-08-05T16:27:59.714Z,99694.04
2023-08-05T16:30:32.074Z,99687.72
2023-08-05T16:33:04.521Z,99691.77
2023-08-05T16:35:36.904Z,99682.22
2023-08-05T16:38:10.124Z,99679.91
2023-08-05T16:40:42.321Z,99682.09
2023-08-05T16:43:14.733Z,99679.79
2023-08-05T16:45:48.910Z,99678.50
2023-08-05T16:48:21.257Z,99678.56
2023-08-05T16:50:53.510Z,99685.69
2023-08-05T16:53:25.649Z,99679.32
2023-08-05T16:55:57.869Z,99683.44
2023-08-05T16:58:30.210Z,99678.38
2023-08-05T17:01:02.576Z,99672.05
2023-08-05T17:03:34.798Z,99673.83
2023-08-05T17:06:07.236Z,99673.58
2023-08-05T17:08:40.462Z,99678.88
2023-08-05T17:11:12.602Z,99671.09
2023-08-05T17:13:44.796Z,99671.11
2023-08-05T17:16:17.003Z,99667.86
2023-08-05T17:18:49.057Z,99666.42
2023-08-05T17:21:21.323Z,99660.59
2023-08-05T17:23:53.795Z,99662.34
2023-08-05T17:26:25.964Z,99657.41
2023-08-05T17:28:58.435Z,99653.46
2023-08-05T17:31:30.855Z,99653.17
2023-08-05T17:34:03.233Z,99652.13
2023-08-05T17:36:35.457Z,99654.95
2023-08-05T17:39:07.851Z,99649.72
2023-08-05T17:41:40.089Z,99648.70
2023-08-05T17:44:12.647Z,99648.73
2023-08-05T17:46:45.286Z,99651.30
2023-08-05T17:49:17.508Z,99649.61
2023-08-05T17:51:49.888Z,99653.48
2023-08-05T17:54:22.432Z,99652.33
2023-08-05T17:56:54.856Z,99646.50
2023-08-05T17:59:27.499Z,99650.58
2023-08-05T18:01:59.827Z,99646.63
2023-08-05T18:04:32.129Z,99652.40
2023-08-05T18:07:04.565Z,99654.59
2023-08-05T18:09:36.773Z,99652.15
2023-08-05T18:12:11.009Z,99645.20
2023-08-05T18:14:46.263Z,99648.89
2023-08-05T18:17:18.675Z,99646.13
2023-08-05T18:19:52.281Z,99651.02
2023-08-05T18:22:24.616Z,99651.42
2023-08-05T18:24:56.915Z,99652.77
2023-08-05T18:27:29.415Z,99653.39
2023-08-05T18:30:01.756Z,99651.20
2023-08-05T18:32:34.251Z,99656.44
2023-08-05T18:35:08.586Z,99656.48
2023-08-05T18:37:41.194Z,99660.36
2023-08-05T18:40:14.869Z,99651.95
2023-08-05T18:42:47.215Z,99652.79
2023-08-05T18:45:19.682Z,99651.14
2023-08-05T18:47:51.876Z,99643.17
2023-08-05T18:50:24.301Z,99640.16
2023-08-05T18:52:56.634Z,99639.06
2023-08-05T18:55:29.029Z,99639.66
2023-08-05T18:58:01.240Z,99638.35
2023-08-05T19:00:33.630Z,99643.54
2023-08-05T19:03:06.134Z,99637.48
2023-08-05T19:05:38.737Z,99628.21
2023-08-05T19:08:11.228Z,99638.64
2023-08-05T19:10:43.528Z,99637.23
2023-08-05T19:13:15.810Z,99627.44
2023-08-05T19:15:48.113Z,99633.44
2023-08-05T19:18:20.419Z,99635.65
2023-08-05T19:20:52.696Z,99643.98
2023-08-05T19:23:24.962Z,99637.69
2023-08-05T19:26:02.752Z,99637.88
2023-08-05T19:28:35.688Z,99637.38
2023-08-05T19:31:11.035Z,99638.98
2023-08-05T19:33:43.178Z,99641.03
2023-08-05T19:36:16.731Z,99644.71
2023-08-05T19:38:51.427Z,99654.11
2023-08-05T19:41:23.704Z,99652.48
2023-08-05T19:43:56.013Z,99657.70
2023-08-05T19:46:28.800Z,99660.71
2023-08-05T19:49:01.212Z,99650.25
2023-08-05T19:51:33.538Z,99649.90
2023-08-05T19:54:06.568Z,99646.98
2023-08-05T19:56:38.646Z,99648.27
2023-08-05T19:59:10.922Z,99657.35
2023-08-05T20:01:43.130Z,99668.46
2023-08-05T20:04:15.241Z,99677.32
2023-08-05T20:06:47.462Z,99675.37
2023-08-05T20:09:19.685Z,99673.69
2023-08-05T20:11:53.341Z,99670.70
2023-08-05T20:14:25.909Z,99674.21
2023-08-05T20:16:58.357Z,99671.39
2023-08-05T20:19:30.855Z,99667.39
2023-08-05T20:22:03.090Z,99674.84
2023-08-05T20:24:35.433Z,99671.79
2023-08-05T20:27:08.900Z,99668.74
2023-08-05T20:29:41.329Z,99671.38
2023-08-05T20:32:13.749Z,99674.62
2023-08-05T20:34:49.986Z,99676.36
2023-08-05T20:37:23.215Z,99675.46
2023-08-05T20:39:56.271Z,99669.79
2023-08-05T20:42:28.702Z,99679.51
2023-08-05T20:45:00.945Z,99682.52
2023-08-05T20:47:33.307Z,99676.20
2023-08-05T20:50:06.371Z,99672.66
2023-08-05T20:52:38.973Z,99672.17
2023-08-05T20:55:11.669Z,99679.17
2023-08-05T20:57:46.313Z,99680.48
2023-08-05T21:00:19.089Z,99679.55
2023-08-05T21:02:51.453Z,99679.83
2023-08-05T21:05:23.722Z,99668.35
2023-08-05T21:07:55.911Z,99669.67
2023-08-05T21:10:28.126Z,99663.73
2023-08-05T21:13:00.447Z,99662.92
2023-08-05T21:15:32.861Z,99657.58
2023-08-05T21:18:05.365Z,99656.38
2023-08-05T21:20:37.688Z,99644.78
2023-08-05T21:23:09.996Z,99637.15
2023-08-05T21:25:42.175Z,99631.74
2023-08-05T21:28:15.575Z,99626.52
2023-08-05T21:30:51.783Z,99624.62
2023-08-05T21:33:24.152Z,99620.21
2023-08-05T21:35:56.521Z,99625.50
2023-08-05T21:38:29.162Z,99622.89
2023-08-05T21:41:01.452Z,99619.99
2023-08-05T21:43:33.846Z,99617.27
2023-08-05T21:46:06.421Z,99612.75
2023-08-05T21:48:39.371Z,99616.67
2023-08-05T21:51:11.907Z,99612.58
2023-08-05T21:53:44.323Z,99606.59
2023-08-05T21:56:16.706Z,99606.32
2023-08-05T21:58:49.041Z,99598.17
2023-08-05T22:01:21.491Z,99591.14
2023-08-05T22:03:53.908Z,99582.38
2023-08-05T22:06:26.383Z,99575.57
2023-08-05T22:08:59.921Z,99563.86
2023-08-05T22:11:32.354Z,99561.30
2023-08-05T22:14:04.597Z,99551.39
2023-08-05T22:16:36.938Z,99538.48
2023-08-05T22:19:09.179Z,99534.28
2023-08-05T22:21:41.468Z,99532.98
2023-08-05T22:24:16.262Z,99536.23
2023-08-05T22:26:53.967Z,99542.00
2023-08-05T22:29:24.690Z,99538.13
2023-08-05T22:31:57.087Z,99536.60
2023-08-05T22:34:29.351Z,99530.72
2023-08-05T22:37:01.885Z,99539.98
2023-08-05T22:39:34.398Z,99547.02
2023-08-05T22:42:07.593Z,99554.64
2023-08-05T22:44:39.877Z,99555.02
2023-08-05T22:47:12.228Z,99550.06
2023-08-05T22:49:44.463Z,99541.85
2023-08-05T22:52:16.863Z,99538.09
2023-08-05T22:54:49.381Z,99534.66
2023-08-05T22:57:22.443Z,99531.71
2023-08-05T22:59:56.376Z,99522.91
2023-08-05T23:02:28.895Z,99519.80
2023-08-05T23:05:02.768Z,99517.58
2023-08-05T23:07:35.005Z,99515.30
2023-08-05T23:10:07.830Z,99508.92
2023-08-05T23:12:40.280Z,99510.87
2023-08-05T23:15:13.743Z,99506.45
2023-08-05T23:17:46.631Z,99496.98
2023-08-05T23:20:19.055Z,99484.89
2023-08-05T23:22:51.245Z,99478.09
2023-08-05T23:25:23.655Z,99475.95
2023-08-05T23:27:56.007Z,99478.21
2023-08-05T23:30:28.261Z,99479.89
2023-08-05T23:33:01.359Z,99478.83
2023-08-05T23:35:33.551Z,99477.64
2023-08-05T23:38:05.945Z,99477.90
2023-08-05T23:40:38.187Z,99482.89
2023-08-05T23:43:10.427Z,99483.42
2023-08-05T23:45:44.693Z,99481.08
2023-08-05T23:48:17.901Z,99478.20
2023-08-05T23:50:50.269Z,99472.70
2023-08-05T23:53:22.599Z,99464.19
2023-08-05T23:55:55.297Z,99462.16
2023-08-05T23:58:27.625Z,99460.81
